sensor_id;sensor_type;location;lat;lon;timestamp;pressure;altitude;pressure_sealevel;temperature;humidity
17072;BME280;7731;50.720;6.912;2023-09-18T00:01:33;99153.50;;;21.19;100.00
17072;BME280;7731;50.720;6.912;2023-09-18T00:04:04;99148.78;;;21.15;100.00
17072;BME280;7731;50.720;6.912;2023-09-18T00:06:36;99156.28;;;21.10;100.00
17072;BME280;7731;50.720;6.912;2023-09-18T00:09:06;99142.72;;;21.14;100.00
17072;BME280;7731;50.720;6.912;2023-09-18T00:11:40;99143.06;;;21.11;100.00
17072;BME280;7731;50.720;6.912;2023-09-18T00:14:11;99138.69;;;21.03;100.00
17072;BME280;7731;50.720;6.912;2023-09-18T00:16:44;99131.34;;;20.99;100.00
17072;BME280;7731;50.720;6.912;2023-09-18T00:19:25;99123.66;;;21.05;100.00
17072;BME280;7731;50.720;6.912;2023-09-18T00:21:56;99123.53;;;20.99;100.00
17072;BME280;7731;50.720;6.912;2023-09-18T00:24:28;99117.00;;;20.95;100.00
17072;BME280;7731;50.720;6.912;2023-09-18T00:26:59;99120.63;;;20.94;100.00
17072;BME280;7731;50.720;6.912;2023-09-18T00:29:29;99104.06;;;21.10;100.00
17072;BME280;7731;50.720;6.912;2023-09-18T00:32:04;99103.31;;;20.93;100.00
17072;BME280;7731;50.720;6.912;2023-09-18T00:34:35;99105.28;;;20.91;100.00
17072;BME280;7731;50.720;6.912;2023-09-18T00:37:05;99112.94;;;20.92;100.00
17072;BME280;7731;50.720;6.912;2023-09-18T00:39:38;99107.72;;;20.92;100.00
17072;BME280;7731;50.720;6.912;2023-09-18T00:42:08;99101.84;;;20.98;100.00
17072;BME280;7731;50.720;6.912;2023-09-18T00:44:43;99104.59;;;20.97;100.00
17072;BME280;7731;50.720;6.912;2023-09-18T00:47:16;99107.53;;;21.02;100.00
17072;BME280;7731;50.720;6.912;2023-09-18T00:49:49;99103.97;;;20.86;100.00
17072;BME280;7731;50.720;6.912;2023-09-18T00:52:21;99106.63;;;20.78;100.00
17072;BME280;7731;50.720;6.912;2023-09-18T00:54:55;99104.31;;;20.83;100.00
17072;BME280;7731;50.720;6.912;2023-09-18T00:57:29;99092.56;;;20.79;100.00
17072;BME280;7731;50.720;6.912;2023-09-18T00:59:59;99091.28;;;20.67;100.00
17072;BME280;7731;50.720;6.912;2023-09-18T01:02:33;99079.56;;;20.71;100.00
17072;BME280;7731;50.720;6.912;2023-09-18T01:05:04;99079.22;;;20.58;100.00
17072;BME280;7731;50.720;6.912;2023-09-18T01:07:36;99077.28;;;20.60;100.00
17072;BME280;7731;50.720;6.912;2023-09-18T01:10:08;99072.38;;;20.57;100.00
17072;BME280;7731;50.720;6.912;2023-09-18T01:12:47;99075.66;;;20.42;100.00
17072;BME280;7731;50.720;6.912;2023-09-18T01:15:28;99071.94;;;20.28;100.00
17072;BME280;7731;50.720;6.912;2023-09-18T01:18:03;99063.97;;;20.22;100.00
17072;BME280;7731;50.720;6.912;2023-09-18T01:20:33;99073.41;;;20.31;100.00
17072;BME280;7731;50.720;6.912;2023-09-18T01:23:06;99071.28;;;20.43;100.00
17072;BME280;7731;50.720;6.912;2023-09-18T01:25:38;99060.63;;;20.61;100.00
17072;BME280;7731;50.720;6.912;2023-09-18T01:28:09;99059.34;;;20.65;100.00
17072;BME280;7731;50.720;6.912;2023-09-18T01:30:39;99052.97;;;20.59;100.00
17072;BME280;7731;50.720;6.912;2023-09-18T01:33:11;99053.16;;;20.66;100.00
17072;BME280;7731;50.720;6.912;2023-09-18T01:35:42;99049.88;;;20.72;100.00
17072;BME280;7731;50.720;6.912;2023-09-18T01:38:19;99035.81;;;20.73;100.00
17072;BME280;7731;50.720;6.912;2023-09-18T01:40:54;99038.25;;;20.75;100.00
17072;BME280;7731;50.720;6.912;2023-09-18T01:43:24;99026.81;;;20.84;100.00
17072;BME280;7731;50.720;6.912;2023-09-18T01:45:55;99037.25;;;20.84;100.00
17072;BME280;7731;50.720;6.912;2023-09-18T01:48:25;99034.78;;;20.91;100.00
17072;BME280;7731;50.720;6.912;2023-09-18T01:50:56;99032.97;;;20.91;100.00
17072;BME280;7731;50.720;6.912;2023-09-18T01:53:28;99027.63;;;20.84;100.00
17072;BME280;7731;50.720;6.912;2023-09-18T01:55:59;99034.63;;;20.92;100.00
17072;BME280;7731;50.720;6.912;2023-09-18T01:58:29;99049.13;;;20.95;100.00
17072;BME280;7731;50.720;6.912;2023-09-18T02:01:01;99065.44;;;20.88;100.00
17072;BME280;7731;50.720;6.912;2023-09-18T02:03:32;99073.63;;;20.94;100.00
17072;BME280;7731;50.720;6.912;2023-09-18T02:06:22;99070.38;;;20.83;100.00
17072;BME280;7731;50.720;6.912;2023-09-18T02:08:55;99084.72;;;20.87;100.00
17072;BME280;7731;50.720;6.912;2023-09-18T02:11:26;99067.94;;;20.82;100.00
17072;BME280;7731;50.720;6.912;2023-09-18T02:13:57;99059.31;;;20.73;100.00
17072;BME280;7731;50.720;6.912;2023-09-18T02:16:35;99056.84;;;20.80;100.00
17072;BME280;7731;50.720;6.912;2023-09-18T02:19:09;99056.84;;;20.80;100.00
17072;BME280;7731;50.720;6.912;2023-09-18T02:21:40;99056.47;;;20.91;100.00
17072;BME280;7731;50.720;6.912;2023-09-18T02:24:15;99060.69;;;21.00;100.00
17072;BME280;7731;50.720;6.912;2023-09-18T02:26:46;99048.44;;;21.01;100.00
17072;BME280;7731;50.720;6.912;2023-09-18T02:29:16;99032.31;;;20.97;100.00
17072;BME280;7731;50.720;6.912;2023-09-18T02:31:47;99001.94;;;20.96;100.00
17072;BME280;7731;50.720;6.912;2023-09-18T02:34:20;98999.91;;;20.83;100.00
17072;BME280;7731;50.720;6.912;2023-09-18T02:36:50;98992.06;;;20.83;100.00
17072;BME280;7731;50.720;6.912;2023-09-18T02:39:23;98954.38;;;20.78;100.00
17072;BME280;7731;50.720;6.912;2023-09-18T02:41:54;98947.41;;;20.70;100.00
17072;BME280;7731;50.720;6.912;2023-09-18T02:44:24;98921.31;;;20.70;100.00
17072;BME280;7731;50.720;6.912;2023-09-18T02:46:54;98918.25;;;20.66;100.00
17072;BME280;7731;50.720;6.912;2023-09-18T02:49:25;98901.22;;;20.39;100.00
17072;BME280;7731;50.720;6.912;2023-09-18T02:51:57;98893.72;;;20.36;100.00
17072;BME280;7731;50.720;6.912;2023-09-18T02:54:30;98906.69;;;20.13;100.00
17072;BME280;7731;50.720;6.912;2023-09-18T02:57:00;98896.75;;;20.08;100.00
17072;BME280;7731;50.720;6.912;2023-09-18T02:59:30;98929.03;;;20.15;100.00
17072;BME280;7731;50.720;6.912;2023-09-18T03:02:01;98961.97;;;20.00;100.00
17072;BME280;7731;50.720;6.912;2023-09-18T03:04:32;98964.91;;;19.89;100.00
17072;BME280;7731;50.720;6.912;2023-09-18T03:07:02;98984.81;;;19.82;100.00
17072;BME280;7731;50.720;6.912;2023-09-18T03:09:35;98982.50;;;19.87;100.00
17072;BME280;7731;50.720;6.912;2023-09-18T03:12:09;98983.63;;;20.17;100.00
17072;BME280;7731;50.720;6.912;2023-09-18T03:14:40;99001.03;;;20.25;100.00
17072;BME280;7731;50.720;6.912;2023-09-18T03:17:10;99007.88;;;20.26;100.00
17072;BME280;7731;50.720;6.912;2023-09-18T03:19:41;98992.25;;;20.09;100.00
17072;BME280;7731;50.720;6.912;2023-09-18T03:22:11;99003.34;;;19.87;100.00
17072;BME280;7731;50.720;6.912;2023-09-18T03:24:44;99008.25;;;19.90;100.00
17072;BME280;7731;50.720;6.912;2023-09-18T03:27:16;99004.31;;;19.86;100.00
17072;BME280;7731;50.720;6.912;2023-09-18T03:29:47;98997.78;;;19.65;100.00
17072;BME280;7731;50.720;6.912;2023-09-18T03:32:17;98988.53;;;19.71;100.00
17072;BME280;7731;50.720;6.912;2023-09-18T03:34:51;98977.25;;;19.70;100.00
17072;BME280;7731;50.720;6.912;2023-09-18T03:37:21;98982.19;;;19.82;100.00
17072;BME280;7731;50.720;6.912;2023-09-18T03:39:54;98963.28;;;19.88;100.00
17072;BME280;7731;50.720;6.912;2023-09-18T03:42:26;98965.06;;;19.95;100.00
17072;BME280;7731;50.720;6.912;2023-09-18T03:44:57;98958.22;;;19.94;100.00
17072;BME280;7731;50.720;6.912;2023-09-18T03:47:27;98948.28;;;19.98;100.00
17072;BME280;7731;50.720;6.912;2023-09-18T03:49:57;98948.59;;;20.03;100.00
17072;BME280;7731;50.720;6.912;2023-09-18T03:52:28;98940.13;;;20.01;100.00
17072;BME280;7731;50.720;6.912;2023-09-18T03:55:01;98941.75;;;20.02;100.00
17072;BME280;7731;50.720;6.912;2023-09-18T03:57:34;98945.34;;;20.09;100.00
17072;BME280;7731;50.720;6.912;2023-09-18T04:00:06;98954.78;;;20.02;100.00
17072;BME280;7731;50.720;6.912;2023-09-18T04:02:37;98947.47;;;19.97;100.00
17072;BME280;7731;50.720;6.912;2023-09-18T04:05:07;98944.69;;;19.99;100.00
17072;BME280;7731;50.720;6.912;2023-09-18T04:07:38;98934.75;;;20.03;100.00
17072;BME280;7731;50.720;6.912;2023-09-18T04:10:17;98945.34;;;19.93;100.00
17072;BME280;7731;50.720;6.912;2023-09-18T04:12:51;98959.69;;;19.72;100.00
17072;BME280;7731;50.720;6.912;2023-09-18T04:15:22;98969.78;;;19.75;100.00
17072;BME280;7731;50.720;6.912;2023-09-18T04:17:53;98960.84;;;19.86;100.00
17072;BME280;7731;50.720;6.912;2023-09-18T04:20:23;98958.75;;;19.82;100.00
17072;BME280;7731;50.720;6.912;2023-09-18T04:23:21;98948.94;;;19.84;100.00
17072;BME280;7731;50.720;6.912;2023-09-18T04:25:55;98947.31;;;19.74;100.00
17072;BME280;7731;50.720;6.912;2023-09-18T04:28:25;98940.78;;;19.70;100.00
17072;BME280;7731;50.720;6.912;2023-09-18T04:30:55;98940.44;;;19.73;100.00
17072;BME280;7731;50.720;6.912;2023-09-18T04:33:39;98925.97;;;19.71;100.00
17072;BME280;7731;50.720;6.912;2023-09-18T04:36:13;98927.91;;;19.69;100.00
17072;BME280;7731;50.720;6.912;2023-09-18T04:38:46;98915.41;;;19.80;100.00
17072;BME280;7731;50.720;6.912;2023-09-18T04:41:23;98905.31;;;19.77;100.00
17072;BME280;7731;50.720;6.912;2023-09-18T04:43:54;98906.25;;;19.76;100.00
17072;BME280;7731;50.720;6.912;2023-09-18T04:46:24;98924.19;;;19.79;100.00
17072;BME280;7731;50.720;6.912;2023-09-18T04:48:54;98933.63;;;19.72;100.00
17072;BME280;7731;50.720;6.912;2023-09-18T04:51:25;98917.03;;;19.82;100.00
17072;BME280;7731;50.720;6.912;2023-09-18T04:53:55;98930.03;;;19.73;100.00
17072;BME280;7731;50.720;6.912;2023-09-18T04:56:28;98934.91;;;19.76;100.00
17072;BME280;7731;50.720;6.912;2023-09-18T04:58:58;98930.69;;;19.67;100.00
17072;BME280;7731;50.720;6.912;2023-09-18T05:01:29;98929.41;;;19.79;100.00
17072;BME280;7731;50.720;6.912;2023-09-18T05:03:59;98940.63;;;19.63;100.00
17072;BME280;7731;50.720;6.912;2023-09-18T05:06:30;98942.44;;;19.88;100.00
17072;BME280;7731;50.720;6.912;2023-09-18T05:09:00;98941.63;;;19.71;100.00
17072;BME280;7731;50.720;6.912;2023-09-18T05:11:33;98937.53;;;19.68;100.00
17072;BME280;7731;50.720;6.912;2023-09-18T05:14:04;98956.63;;;19.77;100.00
17072;BME280;7731;50.720;6.912;2023-09-18T05:16:34;98941.28;;;19.74;100.00
17072;BME280;7731;50.720;6.912;2023-09-18T05:19:05;98919.97;;;19.54;100.00
17072;BME280;7731;50.720;6.912;2023-09-18T05:21:35;98921.91;;;19.43;100.00
17072;BME280;7731;50.720;6.912;2023-09-18T05:24:06;98932.84;;;19.55;100.00
17072;BME280;7731;50.720;6.912;2023-09-18T05:26:39;98955.78;;;19.68;100.00
17072;BME280;7731;50.720;6.912;2023-09-18T05:29:09;98953.66;;;19.39;100.00
17072;BME280;7731;50.720;6.912;2023-09-18T05:31:40;98974.19;;;19.58;100.00
17072;BME280;7731;50.720;6.912;2023-09-18T05:34:10;98962.94;;;19.74;100.00
17072;BME280;7731;50.720;6.912;2023-09-18T05:36:40;98969.78;;;19.75;100.00
17072;BME280;7731;50.720;6.912;2023-09-18T05:39:11;98972.91;;;19.79;100.00
17072;BME280;7731;50.720;6.912;2023-09-18T05:41:44;98967.06;;;19.77;100.00
17072;BME280;7731;50.720;6.912;2023-09-18T05:44:14;98970.44;;;19.69;100.00
17072;BME280;7731;50.720;6.912;2023-09-18T05:46:45;98977.94;;;19.80;100.00
17072;BME280;7731;50.720;6.912;2023-09-18T05:49:15;98983.78;;;19.74;100.00
17072;BME280;7731;50.720;6.912;2023-09-18T05:51:45;98987.03;;;19.76;100.00
17072;BME280;7731;50.720;6.912;2023-09-18T05:54:16;98979.06;;;19.94;100.00
17072;BME280;7731;50.720;6.912;2023-09-18T05:56:49;98986.06;;;20.02;100.00
17072;BME280;7731;50.720;6.912;2023-09-18T05:59:20;98983.50;;;19.94;100.00
17072;BME280;7731;50.720;6.912;2023-09-18T06:01:50;98989.03;;;19.91;100.00
17072;BME280;7731;50.720;6.912;2023-09-18T06:04:27;99000.06;;;20.01;100.00
17072;BME280;7731;50.720;6.912;2023-09-18T06:06:58;99009.22;;;20.05;100.00
17072;BME280;7731;50.720;6.912;2023-09-18T06:09:28;99012.47;;;19.99;100.00
17072;BME280;7731;50.720;6.912;2023-09-18T06:12:01;99006.78;;;20.12;100.00
17072;BME280;7731;50.720;6.912;2023-09-18T06:14:32;99007.25;;;19.83;100.00
17072;BME280;7731;50.720;6.912;2023-09-18T06:17:06;98990.97;;;19.89;100.00
17072;BME280;7731;50.720;6.912;2023-09-18T06:19:37;98989.66;;;20.01;100.00
17072;BME280;7731;50.720;6.912;2023-09-18T06:22:11;99000.72;;;20.11;100.00
17072;BME280;7731;50.720;6.912;2023-09-18T06:24:42;99001.38;;;20.22;100.00
17072;BME280;7731;50.720;6.912;2023-09-18T06:27:15;99003.28;;;20.36;100.00
17072;BME280;7731;50.720;6.912;2023-09-18T06:29:46;99009.16;;;20.38;100.00
17072;BME280;7731;50.720;6.912;2023-09-18T06:32:16;98991.28;;;20.19;100.00
17072;BME280;7731;50.720;6.912;2023-09-18T06:34:46;98994.53;;;20.21;100.00
17072;BME280;7731;50.720;6.912;2023-09-18T06:37:17;98985.16;;;20.51;100.00
17072;BME280;7731;50.720;6.912;2023-09-18T06:39:50;98964.72;;;20.63;100.00
17072;BME280;7731;50.720;6.912;2023-09-18T06:42:23;98972.91;;;20.60;100.00
17072;BME280;7731;50.720;6.912;2023-09-18T06:44:53;98993.13;;;20.66;100.00
17072;BME280;7731;50.720;6.912;2023-09-18T06:47:23;98986.06;;;20.75;100.00
17072;BME280;7731;50.720;6.912;2023-09-18T06:49:54;98993.13;;;20.66;100.00
17072;BME280;7731;50.720;6.912;2023-09-18T06:52:25;98990.47;;;20.74;100.00
17072;BME280;7731;50.720;6.912;2023-09-18T06:54:55;98988.53;;;20.99;100.00
17072;BME280;7731;50.720;6.912;2023-09-18T06:57:28;98991.66;;;21.03;100.00
17072;BME280;7731;50.720;6.912;2023-09-18T06:59:58;98995.34;;;20.77;100.00
17072;BME280;7731;50.720;6.912;2023-09-18T07:02:28;98993.94;;;20.50;100.00
17072;BME280;7731;50.720;6.912;2023-09-18T07:04:59;98994.72;;;20.75;100.00
17072;BME280;7731;50.720;6.912;2023-09-18T07:07:30;99000.25;;;20.64;100.00
17072;BME280;7731;50.720;6.912;2023-09-18T07:10:00;99007.16;;;20.65;100.00
17072;BME280;7731;50.720;6.912;2023-09-18T07:12:34;99003.00;;;20.79;100.00
17072;BME280;7731;50.720;6.912;2023-09-18T07:15:07;99027.63;;;20.84;100.00
17072;BME280;7731;50.720;6.912;2023-09-18T07:17:38;99023.66;;;20.97;100.00
17072;BME280;7731;50.720;6.912;2023-09-18T07:20:11;99019.22;;;20.66;100.00
17072;BME280;7731;50.720;6.912;2023-09-18T07:22:48;99027.34;;;20.71;100.00
17072;BME280;7731;50.720;6.912;2023-09-18T07:25:19;99028.72;;;20.90;100.00
17072;BME280;7731;50.720;6.912;2023-09-18T07:27:52;99047.91;;;20.74;100.00
17072;BME280;7731;50.720;6.912;2023-09-18T07:30:22;99050.22;;;20.69;100.00
17072;BME280;7731;50.720;6.912;2023-09-18T07:32:55;99052.44;;;20.80;100.00
17072;BME280;7731;50.720;6.912;2023-09-18T07:35:26;99073.66;;;20.61;100.00
17072;BME280;7731;50.720;6.912;2023-09-18T07:37:57;99079.84;;;20.84;100.00
17072;BME280;7731;50.720;6.912;2023-09-18T07:40:27;99074.47;;;20.78;100.00
17072;BME280;7731;50.720;6.912;2023-09-18T07:43:00;99058.66;;;20.71;100.00
17072;BME280;7731;50.720;6.912;2023-09-18T07:45:30;99082.78;;;20.73;100.00
17072;BME280;7731;50.720;6.912;2023-09-18T07:48:01;99072.88;;;20.60;100.00
17072;BME280;7731;50.720;6.912;2023-09-18T07:50:31;99052.94;;;20.76;100.00
17072;BME280;7731;50.720;6.912;2023-09-18T07:53:03;99065.53;;;20.72;100.00
17072;BME280;7731;50.720;6.912;2023-09-18T07:55:33;99077.56;;;20.73;100.00
17072;BME280;7731;50.720;6.912;2023-09-18T07:58:08;99070.25;;;20.77;100.00
17072;BME280;7731;50.720;6.912;2023-09-18T08:00:39;99085.56;;;20.72;100.00
17072;BME280;7731;50.720;6.912;2023-09-18T08:03:10;99096.38;;;20.52;100.00
17072;BME280;7731;50.720;6.912;2023-09-18T08:05:40;99102.56;;;20.67;100.00
17072;BME280;7731;50.720;6.912;2023-09-18T08:08:10;99106.78;;;20.68;100.00
17072;BME280;7731;50.720;6.912;2023-09-18T08:10:41;99107.28;;;20.72;100.00
17072;BME280;7731;50.720;6.912;2023-09-18T08:13:14;99094.22;;;20.80;100.00
17072;BME280;7731;50.720;6.912;2023-09-18T08:15:45;99085.66;;;20.95;100.00
17072;BME280;7731;50.720;6.912;2023-09-18T08:18:16;99100.41;;;20.87;100.00
17072;BME280;7731;50.720;6.912;2023-09-18T08:20:47;99099.72;;;20.94;100.00
17072;BME280;7731;50.720;6.912;2023-09-18T08:23:17;99099.38;;;20.97;100.00
17072;BME280;7731;50.720;6.912;2023-09-18T08:25:48;99108.69;;;20.91;100.00
17072;BME280;7731;50.720;6.912;2023-09-18T08:28:21;99102.59;;;21.15;100.00
17072;BME280;7731;50.720;6.912;2023-09-18T08:30:51;99108.31;;;21.11;100.00
17072;BME280;7731;50.720;6.912;2023-09-18T08:33:22;99110.16;;;20.94;100.00
17072;BME280;7731;50.720;6.912;2023-09-18T08:35:54;99110.28;;;21.00;100.00
17072;BME280;7731;50.720;6.912;2023-09-18T08:38:28;99128.69;;;21.15;100.00
17072;BME280;7731;50.720;6.912;2023-09-18T08:40:59;99129.38;;;21.09;100.00
17072;BME280;7731;50.720;6.912;2023-09-18T08:43:34;99123.59;;;21.22;100.00
17072;BME280;7731;50.720;6.912;2023-09-18T08:46:05;99122.88;;;20.97;100.00
17072;BME280;7731;50.720;6.912;2023-09-18T08:48:36;99118.88;;;21.26;100.00
17072;BME280;7731;50.720;6.912;2023-09-18T08:51:08;99123.53;;;21.38;100.00
17072;BME280;7731;50.720;6.912;2023-09-18T08:53:40;99126.63;;;21.50;100.00
17072;BME280;7731;50.720;6.912;2023-09-18T08:56:12;99142.31;;;21.50;100.00
17072;BME280;7731;50.720;6.912;2023-09-18T08:58:47;99136.53;;;21.86;100.00
17072;BME280;7731;50.720;6.912;2023-09-18T09:01:19;99130.16;;;21.89;100.00
17072;BME280;7731;50.720;6.912;2023-09-18T09:03:49;99134.44;;;21.82;100.00
17072;BME280;7731;50.720;6.912;2023-09-18T09:06:20;99146.44;;;21.68;100.00
17072;BME280;7731;50.720;6.912;2023-09-18T09:08:51;99140.16;;;21.54;100.00
17072;BME280;7731;50.720;6.912;2023-09-18T09:11:22;99157.94;;;21.58;100.00
17072;BME280;7731;50.720;6.912;2023-09-18T09:14:10;99159.16;;;21.71;100.00
17072;BME280;7731;50.720;6.912;2023-09-18T09:16:48;99163.09;;;21.67;100.00
17072;BME280;7731;50.720;6.912;2023-09-18T09:19:29;99173.09;;;21.63;100.00
17072;BME280;7731;50.720;6.912;2023-09-18T09:22:00;99171.63;;;21.61;100.00
17072;BME280;7731;50.720;6.912;2023-09-18T09:24:40;99161.16;;;21.69;100.00
17072;BME280;7731;50.720;6.912;2023-09-18T09:27:11;99149.25;;;21.89;100.00
17072;BME280;7731;50.720;6.912;2023-09-18T09:29:58;99149.78;;;22.08;98.93
17072;BME280;7731;50.720;6.912;2023-09-18T09:32:36;99156.66;;;22.09;99.17
17072;BME280;7731;50.720;6.912;2023-09-18T09:35:08;99144.56;;;22.08;98.03
17072;BME280;7731;50.720;6.912;2023-09-18T09:37:38;99147.22;;;22.00;100.00
17072;BME280;7731;50.720;6.912;2023-09-18T09:40:13;99148.72;;;21.94;97.91
17072;BME280;7731;50.720;6.912;2023-09-18T09:42:45;99153.63;;;21.97;100.00
17072;BME280;7731;50.720;6.912;2023-09-18T09:45:19;99142.44;;;22.26;96.27
17072;BME280;7731;50.720;6.912;2023-09-18T09:47:54;99132.63;;;22.28;96.51
17072;BME280;7731;50.720;6.912;2023-09-18T09:50:28;99128.28;;;22.59;93.04
17072;BME280;7731;50.720;6.912;2023-09-18T09:53:00;99138.53;;;22.31;94.46
17072;BME280;7731;50.720;6.912;2023-09-18T09:55:32;99123.22;;;22.57;92.21
17072;BME280;7731;50.720;6.912;2023-09-18T09:58:05;99126.41;;;22.68;91.17
17072;BME280;7731;50.720;6.912;2023-09-18T10:00:45;99133.38;;;22.90;89.45
17072;BME280;7731;50.720;6.912;2023-09-18T10:03:20;99122.22;;;23.48;85.01
17072;BME280;7731;50.720;6.912;2023-09-18T10:05:52;99126.00;;;23.82;82.41
17072;BME280;7731;50.720;6.912;2023-09-18T10:08:25;99121.63;;;24.32;77.87
17072;BME280;7731;50.720;6.912;2023-09-18T10:11:07;99113.63;;;25.04;74.60
17072;BME280;7731;50.720;6.912;2023-09-18T10:13:48;99115.38;;;25.31;71.39
17072;BME280;7731;50.720;6.912;2023-09-18T10:16:28;99137.25;;;24.62;73.57
17072;BME280;7731;50.720;6.912;2023-09-18T10:19:13;99135.41;;;26.28;66.67
17072;BME280;7731;50.720;6.912;2023-09-18T10:22:06;99142.28;;;26.55;64.95
17072;BME280;7731;50.720;6.912;2023-09-18T10:24:40;99144.31;;;26.60;61.30
17072;BME280;7731;50.720;6.912;2023-09-18T10:27:13;99155.25;;;26.77;61.45
17072;BME280;7731;50.720;6.912;2023-09-18T10:29:50;99158.88;;;26.63;59.96
17072;BME280;7731;50.720;6.912;2023-09-18T10:32:26;99156.38;;;27.15;59.09
17072;BME280;7731;50.720;6.912;2023-09-18T10:34:58;99160.91;;;26.47;62.86
17072;BME280;7731;50.720;6.912;2023-09-18T10:37:32;99162.41;;;27.29;58.33
17072;BME280;7731;50.720;6.912;2023-09-18T10:40:10;99158.91;;;26.36;60.51
17072;BME280;7731;50.720;6.912;2023-09-18T10:42:42;99166.81;;;26.49;60.20
17072;BME280;7731;50.720;6.912;2023-09-18T10:45:13;99163.22;;;27.22;59.57
17072;BME280;7731;50.720;6.912;2023-09-18T10:47:49;99151.09;;;27.67;55.50
17072;BME280;7731;50.720;6.912;2023-09-18T10:50:24;99150.16;;;28.18;53.93
17072;BME280;7731;50.720;6.912;2023-09-18T10:52:57;99140.34;;;28.76;50.45
17072;BME280;7731;50.720;6.912;2023-09-18T10:55:28;99142.41;;;28.74;50.62
17072;BME280;7731;50.720;6.912;2023-09-18T10:58:01;99144.31;;;28.85;48.81
17072;BME280;7731;50.720;6.912;2023-09-18T11:00:32;99156.00;;;28.52;48.57
17072;BME280;7731;50.720;6.912;2023-09-18T11:03:14;99133.84;;;28.72;49.02
17072;BME280;7731;50.720;6.912;2023-09-18T11:05:47;99134.59;;;28.79;48.34
17072;BME280;7731;50.720;6.912;2023-09-18T11:08:28;99141.47;;;28.36;49.20
17072;BME280;7731;50.720;6.912;2023-09-18T11:11:05;99142.13;;;28.57;48.49
17072;BME280;7731;50.720;6.912;2023-09-18T11:13:45;99147.13;;;28.40;48.43
17072;BME280;7731;50.720;6.912;2023-09-18T11:16:33;99153.41;;;28.20;48.97
17072;BME280;7731;50.720;6.912;2023-09-18T11:19:17;99167.72;;;28.06;49.69
17072;BME280;7731;50.720;6.912;2023-09-18T11:22:07;99159.72;;;26.70;52.96
17072;BME280;7731;50.720;6.912;2023-09-18T11:24:40;99165.09;;;25.81;57.55
17072;BME280;7731;50.720;6.912;2023-09-18T11:27:13;99162.06;;;25.84;58.73
17072;BME280;7731;50.720;6.912;2023-09-18T11:29:43;99168.22;;;26.72;55.62
17072;BME280;7731;50.720;6.912;2023-09-18T11:32:37;99171.50;;;27.39;52.52
17072;BME280;7731;50.720;6.912;2023-09-18T11:35:14;99162.97;;;26.59;55.29
17072;BME280;7731;50.720;6.912;2023-09-18T11:37:46;99145.44;;;27.04;53.07
17072;BME280;7731;50.720;6.912;2023-09-18T11:40:30;99144.94;;;27.41;52.36
17072;BME280;7731;50.720;6.912;2023-09-18T11:43:22;99150.88;;;25.56;55.11
17072;BME280;7731;50.720;6.912;2023-09-18T11:45:55;99158.66;;;25.29;57.11
17072;BME280;7731;50.720;6.912;2023-09-18T11:48:27;99143.44;;;25.86;55.66
17072;BME280;7731;50.720;6.912;2023-09-18T11:51:04;99133.59;;;26.15;55.05
17072;BME280;7731;50.720;6.912;2023-09-18T11:53:40;99134.94;;;25.91;55.83
17072;BME280;7731;50.720;6.912;2023-09-18T11:56:12;99129.34;;;26.34;54.72
17072;BME280;7731;50.720;6.912;2023-09-18T11:58:46;99138.63;;;26.03;55.61
17072;BME280;7731;50.720;6.912;2023-09-18T12:01:18;99125.38;;;25.49;57.35
17072;BME280;7731;50.720;6.912;2023-09-18T12:03:54;99127.63;;;25.18;58.84
17072;BME280;7731;50.720;6.912;2023-09-18T12:06:27;99128.59;;;25.52;56.89
17072;BME280;7731;50.720;6.912;2023-09-18T12:08:59;99122.78;;;25.14;57.97
17072;BME280;7731;50.720;6.912;2023-09-18T12:11:29;99123.69;;;25.00;58.73
17072;BME280;7731;50.720;6.912;2023-09-18T12:14:02;99106.50;;;25.39;57.96
17072;BME280;7731;50.720;6.912;2023-09-18T12:16:38;99116.38;;;26.06;55.14
17072;BME280;7731;50.720;6.912;2023-09-18T12:19:16;99105.84;;;25.99;55.53
17072;BME280;7731;50.720;6.912;2023-09-18T12:21:49;99096.09;;;25.93;55.94
17072;BME280;7731;50.720;6.912;2023-09-18T12:24:21;99095.09;;;26.07;56.27
17072;BME280;7731;50.720;6.912;2023-09-18T12:26:54;99091.22;;;25.70;56.12
17072;BME280;7731;50.720;6.912;2023-09-18T12:29:24;99092.47;;;26.07;55.20
17072;BME280;7731;50.720;6.912;2023-09-18T12:31:55;99089.03;;;26.33;53.45
17072;BME280;7731;50.720;6.912;2023-09-18T12:34:29;99091.06;;;26.31;53.19
17072;BME280;7731;50.720;6.912;2023-09-18T12:37:03;99087.00;;;26.29;51.73
17072;BME280;7731;50.720;6.912;2023-09-18T12:39:33;99086.78;;;25.83;51.25
17072;BME280;7731;50.720;6.912;2023-09-18T12:42:06;99098.16;;;26.04;50.56
17072;BME280;7731;50.720;6.912;2023-09-18T12:44:36;99089.03;;;26.00;50.51
17072;BME280;7731;50.720;6.912;2023-09-18T12:47:09;99094.88;;;25.89;51.71
17072;BME280;7731;50.720;6.912;2023-09-18T12:49:40;99102.59;;;26.10;51.36
17072;BME280;7731;50.720;6.912;2023-09-18T12:52:13;99094.91;;;26.09;51.58
17072;BME280;7731;50.720;6.912;2023-09-18T12:54:44;99093.84;;;25.76;52.52
17072;BME280;7731;50.720;6.912;2023-09-18T12:57:22;99091.78;;;25.52;53.18
17072;BME280;7731;50.720;6.912;2023-09-18T12:59:52;99089.53;;;25.48;53.68
17072;BME280;7731;50.720;6.912;2023-09-18T13:02:23;99087.38;;;25.85;51.29
17072;BME280;7731;50.720;6.912;2023-09-18T13:04:57;99091.66;;;26.00;50.11
17072;BME280;7731;50.720;6.912;2023-09-18T13:07:30;99087.59;;;25.97;51.08
17072;BME280;7731;50.720;6.912;2023-09-18T13:10:07;99099.13;;;25.90;50.62
17072;BME280;7731;50.720;6.912;2023-09-18T13:12:42;99103.75;;;25.88;50.96
17072;BME280;7731;50.720;6.912;2023-09-18T13:15:29;99092.81;;;25.64;50.49
17072;BME280;7731;50.720;6.912;2023-09-18T13:18:08;99093.25;;;25.88;50.16
17072;BME280;7731;50.720;6.912;2023-09-18T13:20:39;99088.75;;;25.55;51.36
17072;BME280;7731;50.720;6.912;2023-09-18T13:23:13;99083.91;;;25.78;51.06
17072;BME280;7731;50.720;6.912;2023-09-18T13:25:48;99089.78;;;25.67;50.82
17072;BME280;7731;50.720;6.912;2023-09-18T13:28:18;99068.91;;;25.45;52.27
17072;BME280;7731;50.720;6.912;2023-09-18T13:30:50;99073.81;;;25.89;48.56
17072;BME280;7731;50.720;6.912;2023-09-18T13:33:21;99078.28;;;25.95;48.19